Time;durP1;ratioP1;P1;durP2;ratioP2;P2;SDS_P1;SDS_P2;PMS_P1;PMS_P2;Temp;Humidity;BMP_temperature;BMP_pressure;BME280_temperature;BME280_humidity;BME280_pressure;Samples;Min_cycle;Max_cycle;Signal;HPM_P1;HPM_P2
2022/11/27 00:00:51;;;;;;;;;;;;;;;5.53;100;102464.7;;;;-76
2022/11/27 00:05:58;;;;;;;;;;;;;;;5.49;100;102459.9;;;;-77
2022/11/27 00:07:22;;;;;;;14.9;3.8;;;;;;;;;;;;;-77
2022/11/27 00:10:51;;;;;;;;;;;;;;;5.47;100;102446;;;;-76
2022/11/27 00:15:50;;;;;;;;;;;;;;;5.41;100;102448.2;;;;-77
2022/11/27 00:20:50;;;;;;;;;;;;;;;5.4;100;102440.6;;;;-77
2022/11/27 00:25:56;;;;;;;;;;;;;;;5.42;100;102429.1;;;;-77
2022/11/27 00:30:50;;;;;;;;;;;;;;;5.47;100;102432.7;;;;-74
2022/11/27 00:35:50;;;;;;;;;;;;;;;5.44;100;102431.8;;;;-75
2022/11/27 00:37:19;;;;;;;12.3;3.7;;;;;;;;;;;;;-76
2022/11/27 00:40:50;;;;;;;;;;;;;;;5.45;100;102423.3;;;;-76
2022/11/27 00:45:51;;;;;;;;;;;;;;;5.49;100;102419.7;;;;-76
2022/11/27 00:50:50;;;;;;;;;;;;;;;5.5;100;102415.1;;;;-76
2022/11/27 00:55:51;;;;;;;;;;;;;;;5.48;100;102400.7;;;;-76
2022/11/27 01:00:57;;;;;;;;;;;;;;;5.57;100;102397.5;;;;-77
2022/11/27 01:05:51;;;;;;;;;;;;;;;5.58;100;102387.6;;;;-77
2022/11/27 01:07:18;;;;;;;12.8;2.8;;;;;;;;;;;;;-76
2022/11/27 01:10:55;;;;;;;;;;;;;;;5.54;100;102377.8;;;;-75
2022/11/27 01:15:50;;;;;;;;;;;;;;;5.58;100;102385.3;;;;-76
2022/11/27 01:20:54;;;;;;;;;;;;;;;5.6;100;102378.8;;;;-77
2022/11/27 01:25:52;;;;;;;;;;;;;;;5.57;100;102372.5;;;;-77
2022/11/27 01:30:50;;;;;;;;;;;;;;;5.55;100;102362.8;;;;-76
2022/11/27 01:35:55;;;;;;;;;;;;;;;5.54;100;102350.1;;;;-76
2022/11/27 01:37:18;;;;;;;9.9;2.7;;;;;;;;;;;;;-77
2022/11/27 01:40:50;;;;;;;;;;;;;;;5.57;100;102325.9;;;;-75
2022/11/27 01:45:50;;;;;;;;;;;;;;;5.56;100;102327.6;;;;-75
2022/11/27 01:50:50;;;;;;;;;;;;;;;5.57;100;102333;;;;-76
2022/11/27 01:55:51;;;;;;;;;;;;;;;5.55;100;102329.9;;;;-77
2022/11/27 02:00:50;;;;;;;;;;;;;;;5.55;100;102314.5;;;;-77
2022/11/27 02:05:50;;;;;;;;;;;;;;;5.54;100;102296.2;;;;-76
2022/11/27 02:07:18;;;;;;;6.2;2.7;;;;;;;;;;;;;-77
2022/11/27 02:10:53;;;;;;;;;;;;;;;5.48;100;102295.8;;;;-75
2022/11/27 02:15:53;;;;;;;;;;;;;;;5.46;100;102298.9;;;;-77
2022/11/27 02:20:53;;;;;;;;;;;;;;;5.46;100;102303.6;;;;-76
2022/11/27 02:25:56;;;;;;;;;;;;;;;5.42;100;102309.2;;;;-76
2022/11/27 02:30:53;;;;;;;;;;;;;;;5.43;100;102317;;;;-75
2022/11/27 02:35:53;;;;;;;;;;;;;;;5.48;100;102304;;;;-76
2022/11/27 02:37:19;;;;;;;7;2.3;;;;;;;;;;;;;-76
2022/11/27 02:40:53;;;;;;;;;;;;;;;5.44;100;102305.9;;;;-76
2022/11/27 02:45:51;;;;;;;;;;;;;;;5.48;100;102297.5;;;;-76
2022/11/27 02:50:59;;;;;;;;;;;;;;;5.5;100;102283.8;;;;-76
2022/11/27 02:56:02;;;;;;;;;;;;;;;5.58;100;102282.8;;;;-76
2022/11/27 03:00:52;;;;;;;;;;;;;;;5.6;100;102279.8;;;;-77
2022/11/27 03:05:57;;;;;;;;;;;;;;;5.61;100;102274.8;;;;-76
2022/11/27 03:07:38;;;;;;;8.1;2.3;;;;;;;;;;;;;-76
2022/11/27 03:11:05;;;;;;;;;;;;;;;5.68;100;102274.4;;;;-76
2022/11/27 03:14:04;;;;;;;;;;;;;;;5.58;100;102269.3;;;;-77
2022/11/27 03:19:01;;;;;;;;;;;;;;;5.7;100;102262.3;;;;-75
2022/11/27 03:23:06;;;;;;;;;;;;;;;5.68;99.84375;102248.6;;;;-76
2022/11/27 03:33:04;;;;;;;;;;;;;;;5.7;99.58887;102248.6;;;;-76
2022/11/27 03:37:22;;;;;;;9.4;2.4;;;;;;;;;;;;;-77
2022/11/27 03:37:59;;;;;;;;;;;;;;;5.73;99.24707;102254.6;;;;-75
2022/11/27 03:43:01;;;;;;;;;;;;;;;5.73;99.22559;102236.6;;;;-76
2022/11/27 03:48:04;;;;;;;;;;;;;;;5.74;99.05566;102222.7;;;;-77
2022/11/27 03:53:05;;;;;;;;;;;;;;;5.76;98.81836;102222.7;;;;-76
2022/11/27 03:58:02;;;;;;;;;;;;;;;5.76;98.63379;102217.3;;;;-77
2022/11/27 04:02:59;;;;;;;;;;;;;;;5.77;98.55078;102229.9;;;;-76
2022/11/27 04:07:20;;;;;;;8.3;1.8;;;;;;;;;;;;;-76
2022/11/27 04:08:00;;;;;;;;;;;;;;;5.78;98.28906;102230.8;;;;-76
2022/11/27 04:12:59;;;;;;;;;;;;;;;5.76;98.29785;102227.8;;;;-76
2022/11/27 04:17:59;;;;;;;;;;;;;;;5.83;97.99707;102229;;;;-77
2022/11/27 04:22:59;;;;;;;;;;;;;;;5.83;97.79199;102214.5;;;;-76
2022/11/27 04:27:58;;;;;;;;;;;;;;;5.84;97.66113;102215.3;;;;-76
2022/11/27 04:32:58;;;;;;;;;;;;;;;5.83;97.68066;102210.8;;;;-77
2022/11/27 04:37:17;;;;;;;6.8;1.8;;;;;;;;;;;;;-76
2022/11/27 04:37:58;;;;;;;;;;;;;;;5.85;97.44531;102211;;;;-76
2022/11/27 04:42:58;;;;;;;;;;;;;;;5.84;97.74902;102207.2;;;;-76
2022/11/27 04:47:58;;;;;;;;;;;;;;;5.81;97.7207;102203.8;;;;-75
2022/11/27 04:52:58;;;;;;;;;;;;;;;5.85;97.34766;102202.8;;;;-76
2022/11/27 04:57:58;;;;;;;;;;;;;;;5.83;97.58496;102198.5;;;;-75
2022/11/27 05:02:58;;;;;;;;;;;;;;;5.85;97.34961;102192.3;;;;-76
2022/11/27 05:07:17;;;;;;;7.2;2.1;;;;;;;;;;;;;-76
2022/11/27 05:07:58;;;;;;;;;;;;;;;5.83;97.26953;102191.1;;;;-76
2022/11/27 05:12:58;;;;;;;;;;;;;;;5.86;97.1543;102200.1;;;;-76
2022/11/27 05:18:06;;;;;;;;;;;;;;;5.86;97.02344;102200.3;;;;-75
2022/11/27 05:22:59;;;;;;;;;;;;;;;5.86;97.33008;102200;;;;-76
2022/11/27 05:27:58;;;;;;;;;;;;;;;5.83;97.44336;102189.3;;;;-77
2022/11/27 05:32:58;;;;;;;;;;;;;;;5.85;97.31738;102186.6;;;;-76
2022/11/27 05:37:16;;;;;;;6.8;2;;;;;;;;;;;;;-76
2022/11/27 05:37:58;;;;;;;;;;;;;;;5.84;97.60742;102186.4;;;;-76
2022/11/27 05:42:58;;;;;;;;;;;;;;;5.8;97.81641;102177.1;;;;-77
2022/11/27 05:47:58;;;;;;;;;;;;;;;5.75;98.25;102160.7;;;;-77
2022/11/27 05:52:58;;;;;;;;;;;;;;;5.75;98.41406;102155.4;;;;-76
2022/11/27 05:57:58;;;;;;;;;;;;;;;5.75;98.43555;102147.7;;;;-77
2022/11/27 06:02:58;;;;;;;;;;;;;;;5.76;98.47266;102161.3;;;;-76
2022/11/27 06:07:16;;;;;;;5.5;1.7;;;;;;;;;;;;;-77
2022/11/27 06:07:58;;;;;;;;;;;;;;;5.71;98.6123;102156.8;;;;-77
2022/11/27 06:12:58;;;;;;;;;;;;;;;5.71;98.6123;102158;;;;-76
2022/11/27 06:17:58;;;;;;;;;;;;;;;5.71;98.60156;102166.6;;;;-77
2022/11/27 06:22:59;;;;;;;;;;;;;;;5.68;98.78906;102147.7;;;;-77
2022/11/27 06:27:58;;;;;;;;;;;;;;;5.67;98.89551;102146.4;;;;-76
2022/11/27 06:32:58;;;;;;;;;;;;;;;5.68;98.82324;102144;;;;-76
2022/11/27 06:37:16;;;;;;;7.4;2.2;;;;;;;;;;;;;-77
2022/11/27 06:37:58;;;;;;;;;;;;;;;5.68;98.92188;102131.7;;;;-76
2022/11/27 06:42:58;;;;;;;;;;;;;;;5.65;98.98926;102117.5;;;;-76
2022/11/27 06:47:58;;;;;;;;;;;;;;;5.66;98.96094;102112.7;;;;-77
2022/11/27 06:52:58;;;;;;;;;;;;;;;5.64;99.01074;102103;;;;-77
2022/11/27 06:57:58;;;;;;;;;;;;;;;5.63;99.18066;102102.9;;;;-77
2022/11/27 07:03:00;;;;;;;;;;;;;;;5.63;99.16992;102111.1;;;;-77
2022/11/27 07:07:16;;;;;;;4.4;1.8;;;;;;;;;;;;;-77
2022/11/27 07:07:58;;;;;;;;;;;;;;;5.61;99.32031;102098;;;;-77
2022/11/27 07:12:58;;;;;;;;;;;;;;;5.63;99.27637;102084;;;;-76
2022/11/27 07:17:58;;;;;;;;;;;;;;;5.63;99.3418;102083.5;;;;-77
2022/11/27 07:22:58;;;;;;;;;;;;;;;5.63;99.3877;102073.9;;;;-77
2022/11/27 07:27:58;;;;;;;;;;;;;;;5.66;99.33984;102068.1;;;;-76
2022/11/27 07:32:58;;;;;;;;;;;;;;;5.65;99.31543;102069.4;;;;-77
2022/11/27 07:37:16;;;;;;;4.7;1.7;;;;;;;;;;;;;-76
2022/11/27 07:37:58;;;;;;;;;;;;;;;5.64;99.46582;102075.7;;;;-76
2022/11/27 07:42:58;;;;;;;;;;;;;;;5.64;99.49805;102063.8;;;;-76
2022/11/27 07:47:58;;;;;;;;;;;;;;;5.65;99.46777;102069.6;;;;-76
2022/11/27 07:52:58;;;;;;;;;;;;;;;5.64;99.48926;102073.5;;;;-75
2022/11/27 07:57:58;;;;;;;;;;;;;;;5.69;99.27148;102066.6;;;;-77
2022/11/27 08:02:58;;;;;;;;;;;;;;;5.69;99.36035;102056.9;;;;-75
2022/11/27 08:07:16;;;;;;;5.4;1.8;;;;;;;;;;;;;-76
2022/11/27 08:07:58;;;;;;;;;;;;;;;5.73;99.18262;102056.1;;;;-76
2022/11/27 08:12:58;;;;;;;;;;;;;;;5.78;99.05273;102057.2;;;;-75
2022/11/27 08:17:58;;;;;;;;;;;;;;;5.76;98.9834;102049.8;;;;-76
2022/11/27 08:22:58;;;;;;;;;;;;;;;5.76;99.09277;102048.1;;;;-76
2022/11/27 08:27:58;;;;;;;;;;;;;;;5.82;98.81152;102045.5;;;;-75
2022/11/27 08:32:58;;;;;;;;;;;;;;;5.87;98.61719;102049;;;;-76
2022/11/27 08:37:16;;;;;;;6.2;1.8;;;;;;;;;;;;;-76
2022/11/27 08:37:58;;;;;;;;;;;;;;;5.84;98.64355;102054;;;;-76
2022/11/27 08:43:00;;;;;;;;;;;;;;;5.88;98.56445;102058.4;;;;-76
2022/11/27 08:47:58;;;;;;;;;;;;;;;5.91;98.4834;102046.3;;;;-76
2022/11/27 08:52:59;;;;;;;;;;;;;;;5.93;98.38965;102049.6;;;;-76
2022/11/27 08:57:58;;;;;;;;;;;;;;;5.96;98.45215;102048;;;;-76
2022/11/27 09:02:58;;;;;;;;;;;;;;;6;98.45898;102035.7;;;;-75
2022/11/27 09:07:18;;;;;;;8.4;2;;;;;;;;;;;;;-75
2022/11/27 09:07:58;;;;;;;;;;;;;;;6.01;98.71289;102040.1;;;;-76
2022/11/27 09:12:59;;;;;;;;;;;;;;;6.02;98.90039;102033.1;;;;-76
2022/11/27 09:17:58;;;;;;;;;;;;;;;6;99.03516;102029.7;;;;-76
2022/11/27 09:22:59;;;;;;;;;;;;;;;6.04;99.27637;102029.7;;;;-75
2022/11/27 09:28:00;;;;;;;;;;;;;;;6.02;99.41211;102020.8;;;;-76
2022/11/27 09:33:00;;;;;;;;;;;;;;;6;99.58008;102018.5;;;;-76
2022/11/27 09:37:15;;;;;;;6.6;2.1;;;;;;;;;;;;;-78
2022/11/27 09:37:58;;;;;;;;;;;;;;;6.03;99.75195;102019.1;;;;-77
2022/11/27 09:43:04;;;;;;;;;;;;;;;6.07;99.81641;102011;;;;-75
2022/11/27 09:48:01;;;;;;;;;;;;;;;6.08;100;102010.4;;;;-76
2022/11/27 09:53:00;;;;;;;;;;;;;;;6.09;100;102009.7;;;;-76
2022/11/27 09:58:03;;;;;;;;;;;;;;;6.1;100;102001.8;;;;-76
2022/11/27 10:02:58;;;;;;;;;;;;;;;6.14;100;102001.2;;;;-75
2022/11/27 10:07:18;;;;;;;6.6;2.1;;;;;;;;;;;;;-76
2022/11/27 10:08:04;;;;;;;;;;;;;;;6.13;100;102000.6;;;;-77
2022/11/27 10:13:03;;;;;;;;;;;;;;;6.14;100;101997.7;;;;-75
2022/11/27 10:18:01;;;;;;;;;;;;;;;6.16;100;101983.6;;;;-77
2022/11/27 10:23:02;;;;;;;;;;;;;;;6.17;100;101976.2;;;;-77
2022/11/27 10:28:03;;;;;;;;;;;;;;;6.2;100;101970.2;;;;-77
2022/11/27 10:33:00;;;;;;;;;;;;;;;6.2;100;101969.2;;;;-76
2022/11/27 10:37:18;;;;;;;6.5;2.7;;;;;;;;;;;;;-78
2022/11/27 10:37:59;;;;;;;;;;;;;;;6.23;100;101965.3;;;;-76
2022/11/27 10:43:07;;;;;;;;;;;;;;;6.22;100;101957.4;;;;-77
2022/11/27 10:47:58;;;;;;;;;;;;;;;6.25;100;101951.2;;;;-77
2022/11/27 10:53:00;;;;;;;;;;;;;;;6.27;100;101941.7;;;;-78
2022/11/27 10:58:05;;;;;;;;;;;;;;;6.29;100;101941;;;;-77
2022/11/27 11:03:06;;;;;;;;;;;;;;;6.31;100;101929.4;;;;-76
2022/11/27 11:07:26;;;;;;;5.9;2.6;;;;;;;;;;;;;-77
2022/11/27 11:08:07;;;;;;;;;;;;;;;6.32;100;101927.3;;;;-77
2022/11/27 11:13:09;;;;;;;;;;;;;;;6.35;100;101917.8;;;;-75
2022/11/27 11:17:58;;;;;;;;;;;;;;;6.38;100;101910.1;;;;-77
2022/11/27 11:22:58;;;;;;;;;;;;;;;6.39;100;101893.5;;;;-77
2022/11/27 11:27:58;;;;;;;;;;;;;;;6.41;100;101885.4;;;;-75
2022/11/27 11:33:02;;;;;;;;;;;;;;;6.42;100;101886.5;;;;-77
2022/11/27 11:37:21;;;;;;;9;3;;;;;;;;;;;;;-77
2022/11/27 11:38:00;;;;;;;;;;;;;;;6.45;100;101894.2;;;;-78
2022/11/27 11:42:59;;;;;;;;;;;;;;;6.46;100;101884.6;;;;-77
2022/11/27 11:47:58;;;;;;;;;;;;;;;6.49;100;101877.6;;;;-76
2022/11/27 11:53:02;;;;;;;;;;;;;;;6.49;100;101875.8;;;;-77
2022/11/27 11:58:09;;;;;;;;;;;;;;;6.5;100;101874.8;;;;-77
2022/11/27 12:03:10;;;;;;;;;;;;;;;6.53;100;101861.3;;;;-76
2022/11/27 12:07:19;;;;;;;8;3.1;;;;;;;;;;;;;-76
2022/11/27 12:08:08;;;;;;;;;;;;;;;6.53;100;101845;;;;-78
2022/11/27 12:13:04;;;;;;;;;;;;;;;6.54;100;101830.6;;;;-77
2022/11/27 12:18:01;;;;;;;;;;;;;;;6.54;100;101818.6;;;;-77
2022/11/27 12:23:11;;;;;;;;;;;;;;;6.56;100;101796.8;;;;-76
2022/11/27 12:28:07;;;;;;;;;;;;;;;6.58;100;101777.9;;;;-76
2022/11/27 12:33:07;;;;;;;;;;;;;;;6.59;100;101787.3;;;;-77
2022/11/27 12:37:25;;;;;;;6.9;2.9;;;;;;;;;;;;;-77
2022/11/27 12:38:03;;;;;;;;;;;;;;;6.6;100;101790.5;;;;-76
2022/11/27 12:43:05;;;;;;;;;;;;;;;6.59;100;101783.4;;;;-77
2022/11/27 12:48:01;;;;;;;;;;;;;;;6.61;100;101790.9;;;;-77
2022/11/27 12:53:02;;;;;;;;;;;;;;;6.6;100;101779.3;;;;-76
2022/11/27 12:58:02;;;;;;;;;;;;;;;6.6;100;101782.5;;;;-74
2022/11/27 13:03:03;;;;;;;;;;;;;;;6.6;100;101776.6;;;;-75
2022/11/27 13:07:18;;;;;;;6.8;3.1;;;;;;;;;;;;;-74
2022/11/27 13:07:59;;;;;;;;;;;;;;;6.6;100;101778.1;;;;-74
2022/11/27 13:13:02;;;;;;;;;;;;;;;6.6;100;101773.4;;;;-74
2022/11/27 13:18:02;;;;;;;;;;;;;;;6.61;100;101771.8;;;;-75
2022/11/27 13:22:58;;;;;;;;;;;;;;;6.58;100;101761.9;;;;-75
2022/11/27 13:27:58;;;;;;;;;;;;;;;6.59;100;101751;;;;-74
2022/11/27 13:33:02;;;;;;;;;;;;;;;6.6;100;101741.9;;;;-78
2022/11/27 13:37:30;;;;;;;8.5;3.7;;;;;;;;;;;;;-77
2022/11/27 13:38:03;;;;;;;;;;;;;;;6.61;100;101731.3;;;;-77
2022/11/27 13:42:59;;;;;;;;;;;;;;;6.6;100;101722.3;;;;-78
2022/11/27 13:47:59;;;;;;;;;;;;;;;6.6;100;101717.1;;;;-75
2022/11/27 13:53:02;;;;;;;;;;;;;;;6.62;100;101714.8;;;;-76
2022/11/27 13:57:59;;;;;;;;;;;;;;;6.62;100;101703.5;;;;-76
2022/11/27 14:02:58;;;;;;;;;;;;;;;6.64;100;101695.9;;;;-76
2022/11/27 14:07:16;;;;;;;8;3.3;;;;;;;;;;;;;-76
2022/11/27 14:07:59;;;;;;;;;;;;;;;6.65;100;101689.3;;;;-76
2022/11/27 14:13:01;;;;;;;;;;;;;;;6.64;100;101679.9;;;;-75
2022/11/27 14:18:08;;;;;;;;;;;;;;;6.65;100;101678;;;;-76
2022/11/27 14:22:59;;;;;;;;;;;;;;;6.65;100;101670.7;;;;-75
2022/11/27 14:28:01;;;;;;;;;;;;;;;6.65;100;101665.1;;;;-76
2022/11/27 14:32:58;;;;;;;;;;;;;;;6.64;100;101661.5;;;;-76
2022/11/27 14:37:28;;;;;;;9.8;3.4;;;;;;;;;;;;;-75
2022/11/27 14:38:08;;;;;;;;;;;;;;;6.64;100;101643.2;;;;-76
2022/11/27 14:43:08;;;;;;;;;;;;;;;6.64;100;101638.7;;;;-75
2022/11/27 14:47:58;;;;;;;;;;;;;;;6.64;100;101645.6;;;;-74
2022/11/27 14:53:00;;;;;;;;;;;;;;;6.62;100;101645.4;;;;-76
2022/11/27 14:58:00;;;;;;;;;;;;;;;6.62;100;101643.4;;;;-77
2022/11/27 15:03:00;;;;;;;;;;;;;;;6.6;100;101643.3;;;;-76
2022/11/27 15:07:20;;;;;;;7;3.3;;;;;;;;;;;;;-77
2022/11/27 15:07:59;;;;;;;;;;;;;;;6.6;100;101638.7;;;;-77
2022/11/27 15:12:58;;;;;;;;;;;;;;;6.6;100;101627.4;;;;-76
2022/11/27 15:18:00;;;;;;;;;;;;;;;6.59;100;101600.6;;;;-78
2022/11/27 15:23:00;;;;;;;;;;;;;;;6.55;100;101586.3;;;;-77
2022/11/27 15:27:58;;;;;;;;;;;;;;;6.55;100;101586.3;;;;-77
2022/11/27 15:33:00;;;;;;;;;;;;;;;6.56;100;101582.1;;;;-76
2022/11/27 15:37:23;;;;;;;8.9;3.6;;;;;;;;;;;;;-78
2022/11/27 15:38:03;;;;;;;;;;;;;;;6.54;100;101585.6;;;;-76
2022/11/27 15:43:08;;;;;;;;;;;;;;;6.54;100;101586.1;;;;-77
2022/11/27 15:48:07;;;;;;;;;;;;;;;6.53;100;101593.4;;;;-76
2022/11/27 15:52:59;;;;;;;;;;;;;;;6.51;100;101584.4;;;;-75
2022/11/27 15:57:58;;;;;;;;;;;;;;;6.51;100;101576.1;;;;-75
2022/11/27 16:02:59;;;;;;;;;;;;;;;6.53;100;101564;;;;-76
2022/11/27 16:07:19;;;;;;;12.4;4.1;;;;;;;;;;;;;-76
2022/11/27 16:08:00;;;;;;;;;;;;;;;6.51;100;101556.7;;;;-76
2022/11/27 16:12:59;;;;;;;;;;;;;;;6.52;100;101552.7;;;;-76
2022/11/27 16:17:58;;;;;;;;;;;;;;;6.5;100;101546.6;;;;-75
2022/11/27 16:22:58;;;;;;;;;;;;;;;6.52;100;101533.7;;;;-75
2022/11/27 16:27:58;;;;;;;;;;;;;;;6.5;100;101520.3;;;;-75
2022/11/27 16:32:58;;;;;;;;;;;;;;;6.5;99.98047;101514.3;;;;-76
2022/11/27 16:37:15;;;;;;;9.2;4.2;;;;;;;;;;;;;-74
2022/11/27 16:37:58;;;;;;;;;;;;;;;6.5;100;101507.2;;;;-76
2022/11/27 16:42:58;;;;;;;;;;;;;;;6.48;99.99609;101499.7;;;;-75
2022/11/27 16:47:58;;;;;;;;;;;;;;;6.49;99.97754;101495.3;;;;-76
2022/11/27 16:52:58;;;;;;;;;;;;;;;6.49;99.94531;101497.4;;;;-75
2022/11/27 16:57:58;;;;;;;;;;;;;;;6.49;99.94531;101502.5;;;;-78
2022/11/27 17:02:58;;;;;;;;;;;;;;;6.48;100;101493.8;;;;-76
2022/11/27 17:07:15;;;;;;;11.4;4.6;;;;;;;;;;;;;-75
2022/11/27 17:07:58;;;;;;;;;;;;;;;6.46;100;101497.9;;;;-74
2022/11/27 17:12:58;;;;;;;;;;;;;;;6.44;100;101499.7;;;;-75
2022/11/27 17:17:59;;;;;;;;;;;;;;;6.43;100;101489.5;;;;-75
2022/11/27 17:22:58;;;;;;;;;;;;;;;6.43;100;101488.1;;;;-73
2022/11/27 17:27:58;;;;;;;;;;;;;;;6.41;100;101475.8;;;;-75
2022/11/27 17:32:58;;;;;;;;;;;;;;;6.43;100;101466;;;;-75
2022/11/27 17:37:15;;;;;;;12.4;5.2;;;;;;;;;;;;;-75
2022/11/27 17:37:58;;;;;;;;;;;;;;;6.41;100;101453.1;;;;-75
2022/11/27 17:42:58;;;;;;;;;;;;;;;6.4;100;101446.9;;;;-76
2022/11/27 17:47:59;;;;;;;;;;;;;;;6.37;100;101438.1;;;;-76
2022/11/27 17:52:59;;;;;;;;;;;;;;;6.37;100;101439.4;;;;-76
2022/11/27 17:57:58;;;;;;;;;;;;;;;6.36;100;101435.8;;;;-75
2022/11/27 18:02:58;;;;;;;;;;;;;;;6.35;100;101426.5;;;;-76
2022/11/27 18:07:16;;;;;;;10.1;5.4;;;;;;;;;;;;;-76
2022/11/27 18:07:59;;;;;;;;;;;;;;;6.36;100;101421.9;;;;-77
2022/11/27 18:12:58;;;;;;;;;;;;;;;6.33;100;101409.5;;;;-78
2022/11/27 18:17:58;;;;;;;;;;;;;;;6.33;100;101408.5;;;;-76
2022/11/27 18:22:58;;;;;;;;;;;;;;;6.33;100;101402.6;;;;-76
2022/11/27 18:27:58;;;;;;;;;;;;;;;6.31;100;101394.4;;;;-77
2022/11/27 18:32:58;;;;;;;;;;;;;;;6.32;100;101391.3;;;;-76
2022/11/27 18:37:15;;;;;;;9.1;4.9;;;;;;;;;;;;;-76
2022/11/27 18:37:58;;;;;;;;;;;;;;;6.29;100;101382.5;;;;-76
2022/11/27 18:42:58;;;;;;;;;;;;;;;6.29;100;101371.8;;;;-76
2022/11/27 18:47:59;;;;;;;;;;;;;;;6.28;100;101369.4;;;;-77
2022/11/27 18:53:00;;;;;;;;;;;;;;;6.29;100;101363.3;;;;-77
2022/11/27 18:57:58;;;;;;;;;;;;;;;6.28;100;101355;;;;-76
2022/11/27 19:02:59;;;;;;;;;;;;;;;6.28;100;101343.3;;;;-76
2022/11/27 19:07:15;;;;;;;11.1;5.5;;;;;;;;;;;;;-76
2022/11/27 19:08:00;;;;;;;;;;;;;;;6.27;100;101348.4;;;;-76
2022/11/27 19:12:58;;;;;;;;;;;;;;;6.26;100;101341.7;;;;-76
2022/11/27 19:17:58;;;;;;;;;;;;;;;6.27;100;101336.7;;;;-75
2022/11/27 19:22:59;;;;;;;;;;;;;;;6.25;100;101334.6;;;;-76
2022/11/27 19:28:00;;;;;;;;;;;;;;;6.26;100;101331;;;;-76
2022/11/27 19:33:04;;;;;;;;;;;;;;;6.25;100;101330.7;;;;-76
2022/11/27 19:37:14;;;;;;;11.1;4.8;;;;;;;;;;;;;-76
2022/11/27 19:37:58;;;;;;;;;;;;;;;6.24;100;101328.7;;;;-75
2022/11/27 19:42:58;;;;;;;;;;;;;;;6.25;100;101312.8;;;;-78
2022/11/27 19:47:59;;;;;;;;;;;;;;;6.23;100;101305.5;;;;-77
2022/11/27 19:52:58;;;;;;;;;;;;;;;6.24;100;101297.1;;;;-77
2022/11/27 19:57:58;;;;;;;;;;;;;;;6.24;100;101289;;;;-78
2022/11/27 20:02:58;;;;;;;;;;;;;;;6.23;100;101277.7;;;;-77
2022/11/27 20:07:14;;;;;;;11.2;5.3;;;;;;;;;;;;;-78
2022/11/27 20:07:58;;;;;;;;;;;;;;;6.22;100;101281;;;;-78
2022/11/27 20:13:02;;;;;;;;;;;;;;;6.22;100;101271.9;;;;-78
2022/11/27 20:17:58;;;;;;;;;;;;;;;6.22;100;101264.1;;;;-78
2022/11/27 20:22:58;;;;;;;;;;;;;;;6.2;100;101260;;;;-78
2022/11/27 20:27:58;;;;;;;;;;;;;;;6.21;100;101256.6;;;;-77
2022/11/27 20:32:58;;;;;;;;;;;;;;;6.19;100;101243.5;;;;-78
2022/11/27 20:37:14;;;;;;;12.1;5.4;;;;;;;;;;;;;-77
2022/11/27 20:37:58;;;;;;;;;;;;;;;6.2;100;101229.6;;;;-78
2022/11/27 20:42:58;;;;;;;;;;;;;;;6.19;100;101221;;;;-77
2022/11/27 20:47:58;;;;;;;;;;;;;;;6.18;100;101209.4;;;;-78
2022/11/27 20:52:58;;;;;;;;;;;;;;;6.18;100;101197.1;;;;-78
2022/11/27 20:57:58;;;;;;;;;;;;;;;6.18;100;101194.2;;;;-78
2022/11/27 21:02:58;;;;;;;;;;;;;;;6.17;100;101188.8;;;;-78
2022/11/27 21:07:14;;;;;;;11.1;5;;;;;;;;;;;;;-79
2022/11/27 21:07:59;;;;;;;;;;;;;;;6.16;100;101181.4;;;;-79
2022/11/27 21:12:59;;;;;;;;;;;;;;;6.15;100;101176.2;;;;-79
2022/11/27 21:17:58;;;;;;;;;;;;;;;6.14;100;101171.1;;;;-78
2022/11/27 21:23:00;;;;;;;;;;;;;;;6.15;100;101172.5;;;;-78
2022/11/27 21:27:58;;;;;;;;;;;;;;;6.15;100;101174;;;;-77
2022/11/27 21:32:58;;;;;;;;;;;;;;;6.15;100;101171.2;;;;-78
2022/11/27 21:37:13;;;;;;;10.7;5.3;;;;;;;;;;;;;-77
2022/11/27 21:37:58;;;;;;;;;;;;;;;6.13;100;101170.6;;;;-78
2022/11/27 21:42:39;;;;;;;;;;;;;;;6.21;100;101170.5;;;;-80
2022/11/27 21:47:11;;;;;;;;;;;;;;;6.14;100;101162.3;;;;-79
2022/11/27 21:52:13;;;;;;;;;;;;;;;6.14;100;101163.3;;;;-79
2022/11/27 21:57:10;;;;;;;;;;;;;;;6.13;100;101152.3;;;;-79
2022/11/27 22:02:12;;;;;;;;;;;;;;;6.12;100;101146.4;;;;-78
2022/11/27 22:07:10;;;;;;;;;;;;;;;6.13;100;101132.3;;;;-79
2022/11/27 22:07:20;;;;;;;10.9;5.6;;;;;;;;;;;;;-79
2022/11/27 22:12:10;;;;;;;;;;;;;;;6.11;100;101134.1;;;;-79
2022/11/27 22:17:10;;;;;;;;;;;;;;;6.11;100;101131.1;;;;-79
2022/11/27 22:22:10;;;;;;;;;;;;;;;6.11;100;101122.9;;;;-79
2022/11/27 22:27:11;;;;;;;;;;;;;;;6.11;100;101119;;;;-79
2022/11/27 22:32:13;;;;;;;;;;;;;;;6.1;100;101107.1;;;;-79
2022/11/27 22:37:10;;;;;;;;;;;;;;;6.09;100;101102.5;;;;-79
2022/11/27 22:37:20;;;;;;;11.9;5.4;;;;;;;;;;;;;-79
2022/11/27 22:42:13;;;;;;;;;;;;;;;6.1;100;101096.6;;;;-79
2022/11/27 22:47:10;;;;;;;;;;;;;;;6.09;100;101085.4;;;;-80
2022/11/27 22:52:10;;;;;;;;;;;;;;;6.1;100;101076.7;;;;-79
2022/11/27 22:57:10;;;;;;;;;;;;;;;6.1;100;101066;;;;-79
2022/11/27 23:02:10;;;;;;;;;;;;;;;6.1;100;101063.3;;;;-79
2022/11/27 23:07:12;;;;;;;;;;;;;;;6.09;100;101057.9;;;;-78
2022/11/27 23:07:22;;;;;;;11.4;5.4;;;;;;;;;;;;;-78
2022/11/27 23:12:10;;;;;;;;;;;;;;;6.09;100;101050;;;;-79
2022/11/27 23:17:10;;;;;;;;;;;;;;;6.1;100;101046.2;;;;-78
2022/11/27 23:22:10;;;;;;;;;;;;;;;6.1;100;101047.7;;;;-79
2022/11/27 23:27:10;;;;;;;;;;;;;;;6.11;100;101045.1;;;;-79
2022/11/27 23:32:10;;;;;;;;;;;;;;;6.1;100;101038.7;;;;-78
2022/11/27 23:37:10;;;;;;;;;;;;;;;6.12;100;101032.9;;;;-77
2022/11/27 23:37:22;;;;;;;11.2;5.6;;;;;;;;;;;;;-77
2022/11/27 23:42:10;;;;;;;;;;;;;;;6.12;100;101033.5;;;;-78
2022/11/27 23:47:10;;;;;;;;;;;;;;;6.13;100;101033.8;;;;-77
2022/11/27 23:52:10;;;;;;;;;;;;;;;6.13;100;101033;;;;-78
2022/11/27 23:57:12;;;;;;;;;;;;;;;6.14;100;101029.3;;;;-79
